Descanso, CA (91916)

4:45 PM PDT on September 01, 2014 (GMT -0700)
Sherilton Valley | Change Station
CLOSE
Current Station
Personal Weather Station
Location: Descanso, CA
Elevation: 3264 ft
Nearby Weather Stations

Elev 3264 ft 32.90 °N, 116.62 °W | Updated 36 seconds ago

Clear
Clear
88.1 °F
Feels Like 86 °F
N
6.0
Wind Variable Wind from WNW
Gusts 8.0 mph

Today
High -- | Low -- °F
--% Chance of Precip.
Yesterday
High -- | Low -- °F
Precip. -- in
6:21 AM 7:11 PM
Waxing Crescent, 45% visible
Pressure 29.74 in
Visibility -9999.0 miles
Clouds
Heat Index 86 °F
Dew Point 55 °F
Humidity 33%
Rainfall 0.00 in
Snow Depth Not available.
UV Not available.
Pollen 8.30 out of 12
Air Quality Not available.
Flu Activity Not available.
METAR KCZZ 012252Z AUTO 24008G17KT 33/08 A2984 RMK AO1 SLP069 T03280078

More Conditions Fewer Conditions

Pressure 29.74 in
Visibility -9999.0 miles
Clouds
Heat Index 86 °F
Dew Point 55 °F
Humidity 33%
Rainfall 0.00 in
Snow Depth Not available.
UV Not available.
Pollen 8.30 out of 12
Air Quality Not available.
Flu Activity Not available.
METAR KCZZ 012252Z AUTO 24008G17KT 33/08 A2984 RMK AO1 SLP069 T03280078

More Conditions Fewer Conditions

10-Day Weather Forecast

Almanac

Astronomy

Sep. 01, 2014 Rise Set
Actual Time 6:21 AM PDT 7:11 PM PDT
Civil Twilight 5:55 AM PDT 7:36 PM PDT
Nautical Twilight 5:26 AM PDT 8:06 PM PDT
Astronomical Twilight 4:55 AM PDT 8:36 PM PDT
Moon 12:49 PM PDT 11:37 PM PDT
Length of Visible Light 13h 40m
Length of Day
12h 50m
Tomorrow will be 1m 58s shorter.
Waxing Crescent, 45% of the Moon is Illuminated
Today
Waxing Crescent
Sep 2
First Quarter
Sep 8
Full
Sep 15
Last Quarter
Sep 24
New

Today's Extremes

State Highs State Lows

Community

WunderPhotos

Upload Photos

1,749,440 photos uploaded!

Nearby

Snow Depth

Station Depth Elevation
Leavitt Meadows 0 in 7200 ft
Monitor Pass 0 in 8350 ft
CSS Lab 0 in 6900 ft
Adin Mountain 0 in 6200 ft

Earthquake Activity

City Distance Mag. Time & Date
No recent earthquake activity has been reported nearby.
Minimum magnitude displayed is 2.5.

Coastal Water Temperatures

Place Temperature
No Stations Reporting

Nearby Weather Stations